sensor_id;sensor_type;location;lat;lon;timestamp;temperature;humidity
39525;DHT22;25203;50.754;6.978;2024-01-11T00:00:54;-6.10;99.90
39525;DHT22;25203;50.754;6.978;2024-01-11T00:02:54;-6.10;99.90
39525;DHT22;25203;50.754;6.978;2024-01-11T00:04:55;-6.10;99.90
39525;DHT22;25203;50.754;6.978;2024-01-11T00:06:55;-6.00;99.90
39525;DHT22;25203;50.754;6.978;2024-01-11T00:08:56;-6.00;99.90
39525;DHT22;25203;50.754;6.978;2024-01-11T00:10:57;-6.00;99.90
39525;DHT22;25203;50.754;6.978;2024-01-11T00:12:57;-5.90;99.90
39525;DHT22;25203;50.754;6.978;2024-01-11T00:14:58;-5.90;99.90
39525;DHT22;25203;50.754;6.978;2024-01-11T00:16:59;-5.90;99.90
39525;DHT22;25203;50.754;6.978;2024-01-11T00:19:00;-5.90;99.90
39525;DHT22;25203;50.754;6.978;2024-01-11T00:21:00;-5.90;99.90
39525;DHT22;25203;50.754;6.978;2024-01-11T00:23:01;-5.90;99.90
39525;DHT22;25203;50.754;6.978;2024-01-11T00:25:02;-5.90;99.90
39525;DHT22;25203;50.754;6.978;2024-01-11T00:27:03;-6.00;99.90
39525;DHT22;25203;50.754;6.978;2024-01-11T00:29:03;-6.10;99.90
39525;DHT22;25203;50.754;6.978;2024-01-11T00:31:04;-6.10;99.90
39525;DHT22;25203;50.754;6.978;2024-01-11T00:33:05;-6.10;99.90
39525;DHT22;25203;50.754;6.978;2024-01-11T00:35:07;-6.20;99.90
39525;DHT22;25203;50.754;6.978;2024-01-11T00:37:08;-6.20;99.90
39525;DHT22;25203;50.754;6.978;2024-01-11T00:39:08;-6.20;99.90
39525;DHT22;25203;50.754;6.978;2024-01-11T00:41:09;-6.20;99.90
39525;DHT22;25203;50.754;6.978;2024-01-11T00:43:10;-6.20;99.90
39525;DHT22;25203;50.754;6.978;2024-01-11T00:45:10;-6.10;99.90
39525;DHT22;25203;50.754;6.978;2024-01-11T00:47:11;-6.10;99.90
39525;DHT22;25203;50.754;6.978;2024-01-11T00:49:11;-6.10;99.90
39525;DHT22;25203;50.754;6.978;2024-01-11T00:51:12;-6.10;99.90
39525;DHT22;25203;50.754;6.978;2024-01-11T00:53:12;-6.10;99.90
39525;DHT22;25203;50.754;6.978;2024-01-11T00:55:14;-6.10;99.90
39525;DHT22;25203;50.754;6.978;2024-01-11T00:57:16;-6.10;99.90
39525;DHT22;25203;50.754;6.978;2024-01-11T00:59:17;-6.10;99.90
39525;DHT22;25203;50.754;6.978;2024-01-11T01:01:18;-6.20;99.90
39525;DHT22;25203;50.754;6.978;2024-01-11T01:03:19;-6.10;99.90
39525;DHT22;25203;50.754;6.978;2024-01-11T01:05:20;-6.20;99.90
39525;DHT22;25203;50.754;6.978;2024-01-11T01:07:20;-6.20;99.90
39525;DHT22;25203;50.754;6.978;2024-01-11T01:09:21;-6.30;99.90
39525;DHT22;25203;50.754;6.978;2024-01-11T01:11:22;-6.30;99.90
39525;DHT22;25203;50.754;6.978;2024-01-11T01:13:22;-6.30;99.90
39525;DHT22;25203;50.754;6.978;2024-01-11T01:15:23;-6.40;99.90
39525;DHT22;25203;50.754;6.978;2024-01-11T01:17:23;-6.40;99.90
39525;DHT22;25203;50.754;6.978;2024-01-11T01:19:24;-6.40;99.90
39525;DHT22;25203;50.754;6.978;2024-01-11T01:21:24;-6.40;99.90
39525;DHT22;25203;50.754;6.978;2024-01-11T01:23:25;-6.40;99.90
39525;DHT22;25203;50.754;6.978;2024-01-11T01:25:26;-6.40;99.90
39525;DHT22;25203;50.754;6.978;2024-01-11T01:27:27;-6.50;99.90
39525;DHT22;25203;50.754;6.978;2024-01-11T01:29:27;-6.50;99.90
39525;DHT22;25203;50.754;6.978;2024-01-11T01:31:28;-6.50;99.90
39525;DHT22;25203;50.754;6.978;2024-01-11T01:33:29;-6.50;99.90
39525;DHT22;25203;50.754;6.978;2024-01-11T01:35:29;-6.50;99.90
39525;DHT22;25203;50.754;6.978;2024-01-11T01:37:30;-6.50;99.90
39525;DHT22;25203;50.754;6.978;2024-01-11T01:39:31;-6.50;99.90
39525;DHT22;25203;50.754;6.978;2024-01-11T01:41:31;-6.50;99.90
39525;DHT22;25203;50.754;6.978;2024-01-11T01:43:32;-6.50;99.90
39525;DHT22;25203;50.754;6.978;2024-01-11T01:45:33;-6.50;99.90
39525;DHT22;25203;50.754;6.978;2024-01-11T01:47:33;-6.50;99.90
39525;DHT22;25203;50.754;6.978;2024-01-11T01:49:34;-6.50;99.90
39525;DHT22;25203;50.754;6.978;2024-01-11T01:51:36;-6.50;99.90
39525;DHT22;25203;50.754;6.978;2024-01-11T01:53:36;-6.50;99.90
39525;DHT22;25203;50.754;6.978;2024-01-11T01:55:37;-6.50;99.90
39525;DHT22;25203;50.754;6.978;2024-01-11T01:57:39;-6.40;99.90
39525;DHT22;25203;50.754;6.978;2024-01-11T01:59:40;-6.50;99.90
39525;DHT22;25203;50.754;6.978;2024-01-11T02:01:41;-6.60;99.90
39525;DHT22;25203;50.754;6.978;2024-01-11T02:03:43;-6.50;99.90
39525;DHT22;25203;50.754;6.978;2024-01-11T02:05:44;-6.50;99.90
39525;DHT22;25203;50.754;6.978;2024-01-11T02:07:45;-6.50;99.90
39525;DHT22;25203;50.754;6.978;2024-01-11T02:09:46;-6.40;99.90
39525;DHT22;25203;50.754;6.978;2024-01-11T02:11:48;-6.40;99.90
39525;DHT22;25203;50.754;6.978;2024-01-11T02:13:52;-6.50;99.90
39525;DHT22;25203;50.754;6.978;2024-01-11T02:15:53;-6.60;99.90
39525;DHT22;25203;50.754;6.978;2024-01-11T02:17:53;-6.70;99.90
39525;DHT22;25203;50.754;6.978;2024-01-11T02:19:54;-6.70;99.90
39525;DHT22;25203;50.754;6.978;2024-01-11T02:21:58;-6.70;99.90
39525;DHT22;25203;50.754;6.978;2024-01-11T02:24:05;-6.60;99.90
39525;DHT22;25203;50.754;6.978;2024-01-11T02:26:06;-6.60;99.90
39525;DHT22;25203;50.754;6.978;2024-01-11T02:28:06;-6.50;99.90
39525;DHT22;25203;50.754;6.978;2024-01-11T02:30:09;-6.50;99.90
39525;DHT22;25203;50.754;6.978;2024-01-11T02:32:09;-6.40;99.90
39525;DHT22;25203;50.754;6.978;2024-01-11T02:34:10;-6.40;99.90
39525;DHT22;25203;50.754;6.978;2024-01-11T02:36:11;-6.40;99.90
39525;DHT22;25203;50.754;6.978;2024-01-11T02:38:11;-6.40;99.90
39525;DHT22;25203;50.754;6.978;2024-01-11T02:40:13;-6.40;99.90
39525;DHT22;25203;50.754;6.978;2024-01-11T02:42:14;-6.40;99.90
39525;DHT22;25203;50.754;6.978;2024-01-11T02:44:14;-6.30;99.90
39525;DHT22;25203;50.754;6.978;2024-01-11T02:46:15;-6.30;99.90
39525;DHT22;25203;50.754;6.978;2024-01-11T02:48:16;-6.30;99.90
39525;DHT22;25203;50.754;6.978;2024-01-11T02:50:17;-6.30;99.90
39525;DHT22;25203;50.754;6.978;2024-01-11T02:52:18;-6.30;99.90
39525;DHT22;25203;50.754;6.978;2024-01-11T02:54:18;-6.30;99.90
39525;DHT22;25203;50.754;6.978;2024-01-11T02:56:19;-6.30;99.90
39525;DHT22;25203;50.754;6.978;2024-01-11T02:58:19;-6.30;99.90
39525;DHT22;25203;50.754;6.978;2024-01-11T03:00:20;-6.30;99.90
39525;DHT22;25203;50.754;6.978;2024-01-11T03:02:21;-6.30;99.90
39525;DHT22;25203;50.754;6.978;2024-01-11T03:04:21;-6.30;99.90
39525;DHT22;25203;50.754;6.978;2024-01-11T03:06:22;-6.40;99.90
39525;DHT22;25203;50.754;6.978;2024-01-11T03:08:23;-6.30;99.90
39525;DHT22;25203;50.754;6.978;2024-01-11T03:10:23;-6.30;99.90
39525;DHT22;25203;50.754;6.978;2024-01-11T03:12:24;-6.30;99.90
39525;DHT22;25203;50.754;6.978;2024-01-11T03:14:26;-6.20;99.90
39525;DHT22;25203;50.754;6.978;2024-01-11T03:16:27;-6.20;99.90
39525;DHT22;25203;50.754;6.978;2024-01-11T03:18:27;-6.20;99.90
39525;DHT22;25203;50.754;6.978;2024-01-11T03:20:30;-6.20;99.90
39525;DHT22;25203;50.754;6.978;2024-01-11T03:22:31;-6.10;99.90
39525;DHT22;25203;50.754;6.978;2024-01-11T03:24:31;-6.20;99.90
39525;DHT22;25203;50.754;6.978;2024-01-11T03:26:32;-6.20;99.90
39525;DHT22;25203;50.754;6.978;2024-01-11T03:28:32;-6.20;99.90
39525;DHT22;25203;50.754;6.978;2024-01-11T03:30:33;-6.20;99.90
39525;DHT22;25203;50.754;6.978;2024-01-11T03:32:34;-6.20;99.90
39525;DHT22;25203;50.754;6.978;2024-01-11T03:34:34;-6.20;99.90
39525;DHT22;25203;50.754;6.978;2024-01-11T03:36:35;-6.10;99.90
39525;DHT22;25203;50.754;6.978;2024-01-11T03:38:36;-6.20;99.90
39525;DHT22;25203;50.754;6.978;2024-01-11T03:40:37;-6.20;99.90
39525;DHT22;25203;50.754;6.978;2024-01-11T03:42:37;-6.20;99.90
39525;DHT22;25203;50.754;6.978;2024-01-11T03:44:38;-6.20;99.90
39525;DHT22;25203;50.754;6.978;2024-01-11T03:46:38;-6.20;99.90
39525;DHT22;25203;50.754;6.978;2024-01-11T03:48:39;-6.20;99.90
39525;DHT22;25203;50.754;6.978;2024-01-11T03:50:40;-6.10;99.90
39525;DHT22;25203;50.754;6.978;2024-01-11T03:52:41;-6.10;99.90
39525;DHT22;25203;50.754;6.978;2024-01-11T03:54:42;-6.10;99.90
39525;DHT22;25203;50.754;6.978;2024-01-11T03:56:43;-6.10;99.90
39525;DHT22;25203;50.754;6.978;2024-01-11T03:58:43;-6.10;99.90
39525;DHT22;25203;50.754;6.978;2024-01-11T04:00:45;-6.10;99.90
39525;DHT22;25203;50.754;6.978;2024-01-11T04:02:45;-6.10;99.90
39525;DHT22;25203;50.754;6.978;2024-01-11T04:04:46;-6.20;99.90
39525;DHT22;25203;50.754;6.978;2024-01-11T04:06:47;-6.20;99.90
39525;DHT22;25203;50.754;6.978;2024-01-11T04:08:48;-6.20;99.90
39525;DHT22;25203;50.754;6.978;2024-01-11T04:10:49;-6.20;99.90
39525;DHT22;25203;50.754;6.978;2024-01-11T04:12:49;-6.20;99.90
39525;DHT22;25203;50.754;6.978;2024-01-11T04:14:50;-6.20;99.90
39525;DHT22;25203;50.754;6.978;2024-01-11T04:16:51;-6.20;99.90
39525;DHT22;25203;50.754;6.978;2024-01-11T04:18:52;-6.20;99.90
39525;DHT22;25203;50.754;6.978;2024-01-11T04:20:52;-6.20;99.90
39525;DHT22;25203;50.754;6.978;2024-01-11T04:22:53;-6.20;99.90
39525;DHT22;25203;50.754;6.978;2024-01-11T04:24:53;-6.30;99.90
39525;DHT22;25203;50.754;6.978;2024-01-11T04:26:54;-6.30;99.90
39525;DHT22;25203;50.754;6.978;2024-01-11T04:28:54;-6.30;99.90
39525;DHT22;25203;50.754;6.978;2024-01-11T04:30:57;-6.30;99.90
39525;DHT22;25203;50.754;6.978;2024-01-11T04:32:58;-6.40;99.90
39525;DHT22;25203;50.754;6.978;2024-01-11T04:34:58;-6.40;99.90
39525;DHT22;25203;50.754;6.978;2024-01-11T04:36:59;-6.40;99.90
39525;DHT22;25203;50.754;6.978;2024-01-11T04:39:00;-6.50;99.90
39525;DHT22;25203;50.754;6.978;2024-01-11T04:41:00;-6.50;99.90
39525;DHT22;25203;50.754;6.978;2024-01-11T04:43:01;-6.60;99.90
39525;DHT22;25203;50.754;6.978;2024-01-11T04:45:02;-6.70;99.90
39525;DHT22;25203;50.754;6.978;2024-01-11T04:47:03;-6.70;99.90
39525;DHT22;25203;50.754;6.978;2024-01-11T04:49:03;-6.90;99.90
39525;DHT22;25203;50.754;6.978;2024-01-11T04:51:04;-6.90;99.90
39525;DHT22;25203;50.754;6.978;2024-01-11T04:53:04;-7.00;99.90
39525;DHT22;25203;50.754;6.978;2024-01-11T04:55:05;-7.00;99.90
39525;DHT22;25203;50.754;6.978;2024-01-11T04:57:06;-7.10;99.90
39525;DHT22;25203;50.754;6.978;2024-01-11T04:59:07;-7.10;99.90
39525;DHT22;25203;50.754;6.978;2024-01-11T05:01:14;-7.10;99.90
39525;DHT22;25203;50.754;6.978;2024-01-11T05:03:15;-7.10;99.90
39525;DHT22;25203;50.754;6.978;2024-01-11T05:05:16;-7.20;99.90
39525;DHT22;25203;50.754;6.978;2024-01-11T05:07:16;-7.20;99.90
39525;DHT22;25203;50.754;6.978;2024-01-11T05:09:17;-7.20;99.90
39525;DHT22;25203;50.754;6.978;2024-01-11T05:11:19;-7.20;99.90
39525;DHT22;25203;50.754;6.978;2024-01-11T05:13:19;-7.30;99.90
39525;DHT22;25203;50.754;6.978;2024-01-11T05:15:20;-7.30;99.90
39525;DHT22;25203;50.754;6.978;2024-01-11T05:17:21;-7.40;99.90
39525;DHT22;25203;50.754;6.978;2024-01-11T05:19:21;-7.40;99.90
39525;DHT22;25203;50.754;6.978;2024-01-11T05:21:22;-7.30;99.90
39525;DHT22;25203;50.754;6.978;2024-01-11T05:23:23;-7.40;99.90
39525;DHT22;25203;50.754;6.978;2024-01-11T05:25:24;-7.40;99.90
39525;DHT22;25203;50.754;6.978;2024-01-11T05:27:24;-7.40;99.90
39525;DHT22;25203;50.754;6.978;2024-01-11T05:29:25;-7.40;99.90
39525;DHT22;25203;50.754;6.978;2024-01-11T05:31:25;-7.40;99.90
39525;DHT22;25203;50.754;6.978;2024-01-11T05:33:26;-7.40;99.90
39525;DHT22;25203;50.754;6.978;2024-01-11T05:35:27;-7.40;99.90
39525;DHT22;25203;50.754;6.978;2024-01-11T05:37:28;-7.30;99.90
39525;DHT22;25203;50.754;6.978;2024-01-11T05:39:28;-7.30;99.90
39525;DHT22;25203;50.754;6.978;2024-01-11T05:41:29;-7.40;99.90
39525;DHT22;25203;50.754;6.978;2024-01-11T05:43:30;-7.30;99.90
39525;DHT22;25203;50.754;6.978;2024-01-11T05:45:30;-7.40;99.90
39525;DHT22;25203;50.754;6.978;2024-01-11T05:47:31;-7.40;99.90
39525;DHT22;25203;50.754;6.978;2024-01-11T05:49:31;-7.40;99.90
39525;DHT22;25203;50.754;6.978;2024-01-11T05:51:32;-7.40;99.90
39525;DHT22;25203;50.754;6.978;2024-01-11T05:53:33;-7.40;99.90
39525;DHT22;25203;50.754;6.978;2024-01-11T05:55:36;-7.40;99.90
39525;DHT22;25203;50.754;6.978;2024-01-11T05:57:36;-7.30;99.90
39525;DHT22;25203;50.754;6.978;2024-01-11T05:59:37;-7.40;99.90
39525;DHT22;25203;50.754;6.978;2024-01-11T06:01:42;-7.40;99.90
39525;DHT22;25203;50.754;6.978;2024-01-11T06:03:43;-7.40;99.90
39525;DHT22;25203;50.754;6.978;2024-01-11T06:05:43;-7.50;99.90
39525;DHT22;25203;50.754;6.978;2024-01-11T06:07:44;-7.50;99.90
39525;DHT22;25203;50.754;6.978;2024-01-11T06:09:45;-7.50;99.90
39525;DHT22;25203;50.754;6.978;2024-01-11T06:11:46;-7.50;99.90
39525;DHT22;25203;50.754;6.978;2024-01-11T06:13:46;-7.50;99.90
39525;DHT22;25203;50.754;6.978;2024-01-11T06:15:47;-7.60;99.90
39525;DHT22;25203;50.754;6.978;2024-01-11T06:17:48;-7.60;99.90
39525;DHT22;25203;50.754;6.978;2024-01-11T06:19:49;-7.70;99.90
39525;DHT22;25203;50.754;6.978;2024-01-11T06:21:49;-7.70;99.90
39525;DHT22;25203;50.754;6.978;2024-01-11T06:23:50;-7.60;99.90
39525;DHT22;25203;50.754;6.978;2024-01-11T06:25:51;-7.60;99.90
39525;DHT22;25203;50.754;6.978;2024-01-11T06:27:52;-7.60;99.90
39525;DHT22;25203;50.754;6.978;2024-01-11T06:29:52;-7.60;99.90
39525;DHT22;25203;50.754;6.978;2024-01-11T06:31:53;-7.60;99.90
39525;DHT22;25203;50.754;6.978;2024-01-11T06:33:54;-7.60;99.90
39525;DHT22;25203;50.754;6.978;2024-01-11T06:35:55;-7.60;99.90
39525;DHT22;25203;50.754;6.978;2024-01-11T06:37:56;-7.60;99.90
39525;DHT22;25203;50.754;6.978;2024-01-11T06:39:57;-7.70;99.90
39525;DHT22;25203;50.754;6.978;2024-01-11T06:41:57;-7.70;99.90
39525;DHT22;25203;50.754;6.978;2024-01-11T06:43:58;-7.80;99.90
39525;DHT22;25203;50.754;6.978;2024-01-11T06:46:03;-7.80;99.90
39525;DHT22;25203;50.754;6.978;2024-01-11T06:48:04;-7.90;99.90
39525;DHT22;25203;50.754;6.978;2024-01-11T06:50:05;-7.90;99.90
39525;DHT22;25203;50.754;6.978;2024-01-11T06:52:06;-8.00;99.90
39525;DHT22;25203;50.754;6.978;2024-01-11T06:54:07;-8.00;99.90
39525;DHT22;25203;50.754;6.978;2024-01-11T06:56:18;-8.00;99.90
39525;DHT22;25203;50.754;6.978;2024-01-11T06:58:23;-8.00;99.90
39525;DHT22;25203;50.754;6.978;2024-01-11T07:00:23;-8.00;99.90
39525;DHT22;25203;50.754;6.978;2024-01-11T07:02:24;-8.10;99.90
39525;DHT22;25203;50.754;6.978;2024-01-11T07:04:25;-8.10;99.90
39525;DHT22;25203;50.754;6.978;2024-01-11T07:06:25;-8.00;99.90
39525;DHT22;25203;50.754;6.978;2024-01-11T07:08:26;-8.00;99.90
39525;DHT22;25203;50.754;6.978;2024-01-11T07:10:27;-7.90;99.90
39525;DHT22;25203;50.754;6.978;2024-01-11T07:12:27;-7.90;99.90
39525;DHT22;25203;50.754;6.978;2024-01-11T07:14:28;-7.80;99.90
39525;DHT22;25203;50.754;6.978;2024-01-11T07:16:30;-7.70;99.90
39525;DHT22;25203;50.754;6.978;2024-01-11T07:18:31;-7.70;99.90
39525;DHT22;25203;50.754;6.978;2024-01-11T07:20:32;-7.70;99.90
39525;DHT22;25203;50.754;6.978;2024-01-11T07:22:32;-7.70;99.90
39525;DHT22;25203;50.754;6.978;2024-01-11T07:24:33;-7.70;99.90
39525;DHT22;25203;50.754;6.978;2024-01-11T07:26:37;-7.70;99.90
39525;DHT22;25203;50.754;6.978;2024-01-11T07:28:38;-7.60;99.90
39525;DHT22;25203;50.754;6.978;2024-01-11T07:30:39;-7.60;99.90
39525;DHT22;25203;50.754;6.978;2024-01-11T07:32:40;-7.60;99.90
39525;DHT22;25203;50.754;6.978;2024-01-11T07:34:41;-7.60;99.90
39525;DHT22;25203;50.754;6.978;2024-01-11T07:36:41;-7.60;99.90
39525;DHT22;25203;50.754;6.978;2024-01-11T07:38:42;-7.50;99.90
39525;DHT22;25203;50.754;6.978;2024-01-11T07:40:42;-7.50;99.90
39525;DHT22;25203;50.754;6.978;2024-01-11T07:42:43;-7.40;99.90
39525;DHT22;25203;50.754;6.978;2024-01-11T07:44:44;-7.40;99.90
39525;DHT22;25203;50.754;6.978;2024-01-11T07:46:44;-7.40;99.90
39525;DHT22;25203;50.754;6.978;2024-01-11T07:48:45;-7.30;99.90
39525;DHT22;25203;50.754;6.978;2024-01-11T07:50:45;-7.30;99.90
39525;DHT22;25203;50.754;6.978;2024-01-11T07:52:46;-7.20;99.90
39525;DHT22;25203;50.754;6.978;2024-01-11T07:54:47;-7.20;99.90
39525;DHT22;25203;50.754;6.978;2024-01-11T07:56:47;-7.20;99.90
39525;DHT22;25203;50.754;6.978;2024-01-11T07:58:48;-7.20;99.90
39525;DHT22;25203;50.754;6.978;2024-01-11T08:00:48;-7.20;99.90
39525;DHT22;25203;50.754;6.978;2024-01-11T08:02:49;-7.00;99.90
39525;DHT22;25203;50.754;6.978;2024-01-11T08:04:50;-6.80;99.90
39525;DHT22;25203;50.754;6.978;2024-01-11T08:06:50;-6.70;99.90
39525;DHT22;25203;50.754;6.978;2024-01-11T08:08:53;-6.60;99.90
39525;DHT22;25203;50.754;6.978;2024-01-11T08:10:54;-6.70;99.90
39525;DHT22;25203;50.754;6.978;2024-01-11T08:12:55;-6.70;99.90
39525;DHT22;25203;50.754;6.978;2024-01-11T08:14:55;-6.70;99.90
39525;DHT22;25203;50.754;6.978;2024-01-11T08:16:56;-6.70;99.90
39525;DHT22;25203;50.754;6.978;2024-01-11T08:18:56;-6.70;99.90
39525;DHT22;25203;50.754;6.978;2024-01-11T08:20:57;-6.60;99.90
39525;DHT22;25203;50.754;6.978;2024-01-11T08:22:58;-6.50;99.90
39525;DHT22;25203;50.754;6.978;2024-01-11T08:24:58;-6.40;99.90
39525;DHT22;25203;50.754;6.978;2024-01-11T08:26:59;-6.30;99.90
39525;DHT22;25203;50.754;6.978;2024-01-11T08:29:00;-6.20;99.90
39525;DHT22;25203;50.754;6.978;2024-01-11T08:31:01;-6.00;99.90
39525;DHT22;25203;50.754;6.978;2024-01-11T08:33:05;-5.60;99.90
39525;DHT22;25203;50.754;6.978;2024-01-11T08:35:06;-4.50;99.90
39525;DHT22;25203;50.754;6.978;2024-01-11T08:37:07;-3.30;99.90
39525;DHT22;25203;50.754;6.978;2024-01-11T08:39:08;-2.20;99.90
39525;DHT22;25203;50.754;6.978;2024-01-11T08:41:08;-1.00;99.90
39525;DHT22;25203;50.754;6.978;2024-01-11T08:43:09;0.30;99.90
39525;DHT22;25203;50.754;6.978;2024-01-11T08:45:10;1.60;99.90
39525;DHT22;25203;50.754;6.978;2024-01-11T08:47:11;3.00;99.90
39525;DHT22;25203;50.754;6.978;2024-01-11T08:49:11;4.20;98.60
39525;DHT22;25203;50.754;6.978;2024-01-11T08:51:12;5.40;96.40
39525;DHT22;25203;50.754;6.978;2024-01-11T08:53:12;6.40;92.80
39525;DHT22;25203;50.754;6.978;2024-01-11T08:55:13;6.90;88.10
39525;DHT22;25203;50.754;6.978;2024-01-11T08:57:14;7.20;84.40
39525;DHT22;25203;50.754;6.978;2024-01-11T08:59:15;7.20;80.60
39525;DHT22;25203;50.754;6.978;2024-01-11T09:01:16;7.50;78.30
39525;DHT22;25203;50.754;6.978;2024-01-11T09:03:16;7.80;80.10
39525;DHT22;25203;50.754;6.978;2024-01-11T09:05:17;8.30;78.90
39525;DHT22;25203;50.754;6.978;2024-01-11T09:07:17;8.80;76.60
39525;DHT22;25203;50.754;6.978;2024-01-11T09:09:18;9.20;75.10
39525;DHT22;25203;50.754;6.978;2024-01-11T09:11:19;9.70;73.70
39525;DHT22;25203;50.754;6.978;2024-01-11T09:13:19;10.00;71.10
39525;DHT22;25203;50.754;6.978;2024-01-11T09:15:20;10.20;70.70
39525;DHT22;25203;50.754;6.978;2024-01-11T09:17:21;10.50;70.20
39525;DHT22;25203;50.754;6.978;2024-01-11T09:19:22;10.70;68.40
39525;DHT22;25203;50.754;6.978;2024-01-11T09:21:22;10.80;66.80
39525;DHT22;25203;50.754;6.978;2024-01-11T09:23:23;10.90;67.00
39525;DHT22;25203;50.754;6.978;2024-01-11T09:25:23;11.40;67.60
39525;DHT22;25203;50.754;6.978;2024-01-11T09:27:24;12.00;65.90
39525;DHT22;25203;50.754;6.978;2024-01-11T09:29:25;11.80;63.60
39525;DHT22;25203;50.754;6.978;2024-01-11T09:31:25;11.40;63.60
39525;DHT22;25203;50.754;6.978;2024-01-11T09:33:26;10.60;64.50
39525;DHT22;25203;50.754;6.978;2024-01-11T09:35:27;10.60;65.30
39525;DHT22;25203;50.754;6.978;2024-01-11T09:37:28;10.80;64.90
39525;DHT22;25203;50.754;6.978;2024-01-11T09:39:29;11.20;65.20
39525;DHT22;25203;50.754;6.978;2024-01-11T09:41:30;11.90;64.30
39525;DHT22;25203;50.754;6.978;2024-01-11T09:43:33;12.30;62.80
39525;DHT22;25203;50.754;6.978;2024-01-11T09:45:37;12.40;62.00
39525;DHT22;25203;50.754;6.978;2024-01-11T09:47:38;12.00;61.60
39525;DHT22;25203;50.754;6.978;2024-01-11T09:49:40;11.80;61.90
39525;DHT22;25203;50.754;6.978;2024-01-11T09:51:43;11.50;62.00
39525;DHT22;25203;50.754;6.978;2024-01-11T09:53:46;11.40;61.60
39525;DHT22;25203;50.754;6.978;2024-01-11T09:55:47;10.70;62.50
39525;DHT22;25203;50.754;6.978;2024-01-11T09:57:52;10.20;63.50
39525;DHT22;25203;50.754;6.978;2024-01-11T09:59:57;10.50;63.40
39525;DHT22;25203;50.754;6.978;2024-01-11T10:01:58;10.30;63.20
39525;DHT22;25203;50.754;6.978;2024-01-11T10:03:59;10.40;63.50
39525;DHT22;25203;50.754;6.978;2024-01-11T10:06:01;10.80;63.60
39525;DHT22;25203;50.754;6.978;2024-01-11T10:08:02;11.30;63.10
39525;DHT22;25203;50.754;6.978;2024-01-11T10:10:03;11.80;63.20
39525;DHT22;25203;50.754;6.978;2024-01-11T10:12:05;12.70;62.70
39525;DHT22;25203;50.754;6.978;2024-01-11T10:14:05;13.50;62.50
39525;DHT22;25203;50.754;6.978;2024-01-11T10:16:10;14.10;61.00
39525;DHT22;25203;50.754;6.978;2024-01-11T10:18:13;14.50;59.80
39525;DHT22;25203;50.754;6.978;2024-01-11T10:20:15;14.80;59.40
39525;DHT22;25203;50.754;6.978;2024-01-11T10:22:15;14.80;58.50
39525;DHT22;25203;50.754;6.978;2024-01-11T10:24:18;14.90;58.10
39525;DHT22;25203;50.754;6.978;2024-01-11T10:26:20;14.80;57.60
39525;DHT22;25203;50.754;6.978;2024-01-11T10:28:21;14.80;58.20
39525;DHT22;25203;50.754;6.978;2024-01-11T10:30:22;14.90;57.60
39525;DHT22;25203;50.754;6.978;2024-01-11T10:32:28;14.30;57.10
39525;DHT22;25203;50.754;6.978;2024-01-11T10:34:29;13.50;57.80
39525;DHT22;25203;50.754;6.978;2024-01-11T10:36:33;13.40;58.60
39525;DHT22;25203;50.754;6.978;2024-01-11T10:38:39;13.80;58.40
39525;DHT22;25203;50.754;6.978;2024-01-11T10:40:40;14.10;58.10
39525;DHT22;25203;50.754;6.978;2024-01-11T10:42:43;14.70;58.10
39525;DHT22;25203;50.754;6.978;2024-01-11T10:44:46;15.20;57.90
39525;DHT22;25203;50.754;6.978;2024-01-11T10:46:49;15.40;56.40
39525;DHT22;25203;50.754;6.978;2024-01-11T10:48:54;15.70;56.40
39525;DHT22;25203;50.754;6.978;2024-01-11T10:51:00;15.80;56.10
39525;DHT22;25203;50.754;6.978;2024-01-11T10:55:22;16.10;54.70
39525;DHT22;25203;50.754;6.978;2024-01-11T10:57:24;15.60;55.30
39525;DHT22;25203;50.754;6.978;2024-01-11T10:59:26;15.00;55.40
39525;DHT22;25203;50.754;6.978;2024-01-11T11:01:27;14.70;55.80
39525;DHT22;25203;50.754;6.978;2024-01-11T11:03:30;14.70;56.00
39525;DHT22;25203;50.754;6.978;2024-01-11T11:05:32;14.70;56.10
39525;DHT22;25203;50.754;6.978;2024-01-11T11:07:36;14.20;55.80
39525;DHT22;25203;50.754;6.978;2024-01-11T11:09:38;14.10;56.30
39525;DHT22;25203;50.754;6.978;2024-01-11T11:11:40;14.10;56.00
39525;DHT22;25203;50.754;6.978;2024-01-11T11:13:41;13.80;56.20
39525;DHT22;25203;50.754;6.978;2024-01-11T11:15:45;13.60;56.90
39525;DHT22;25203;50.754;6.978;2024-01-11T11:17:49;13.10;56.90
39525;DHT22;25203;50.754;6.978;2024-01-11T11:19:51;13.10;57.40
39525;DHT22;25203;50.754;6.978;2024-01-11T11:21:52;12.90;57.50
39525;DHT22;25203;50.754;6.978;2024-01-11T11:23:55;12.60;58.00
39525;DHT22;25203;50.754;6.978;2024-01-11T11:25:57;12.50;58.70
39525;DHT22;25203;50.754;6.978;2024-01-11T11:27:58;12.00;59.10
39525;DHT22;25203;50.754;6.978;2024-01-11T11:30:04;12.30;59.70
39525;DHT22;25203;50.754;6.978;2024-01-11T11:32:06;12.40;59.20
39525;DHT22;25203;50.754;6.978;2024-01-11T11:34:06;12.60;59.10
39525;DHT22;25203;50.754;6.978;2024-01-11T11:36:12;12.40;59.00
39525;DHT22;25203;50.754;6.978;2024-01-11T11:38:21;12.20;58.90
39525;DHT22;25203;50.754;6.978;2024-01-11T11:40:21;12.10;59.60
39525;DHT22;25203;50.754;6.978;2024-01-11T11:42:23;12.20;59.60
39525;DHT22;25203;50.754;6.978;2024-01-11T11:44:24;12.00;59.50
39525;DHT22;25203;50.754;6.978;2024-01-11T11:46:25;12.00;59.20
39525;DHT22;25203;50.754;6.978;2024-01-11T11:50:30;11.80;59.90
39525;DHT22;25203;50.754;6.978;2024-01-11T11:52:33;12.10;59.50
39525;DHT22;25203;50.754;6.978;2024-01-11T11:54:35;12.00;59.10
39525;DHT22;25203;50.754;6.978;2024-01-11T11:56:36;11.60;59.20
39525;DHT22;25203;50.754;6.978;2024-01-11T11:58:37;10.70;60.10
39525;DHT22;25203;50.754;6.978;2024-01-11T12:00:40;10.00;61.30
39525;DHT22;25203;50.754;6.978;2024-01-11T12:02:41;9.80;62.50
39525;DHT22;25203;50.754;6.978;2024-01-11T12:04:47;10.00;62.20
39525;DHT22;25203;50.754;6.978;2024-01-11T12:06:47;10.10;62.30
39525;DHT22;25203;50.754;6.978;2024-01-11T12:08:48;10.20;62.10
39525;DHT22;25203;50.754;6.978;2024-01-11T12:10:49;10.00;61.90
39525;DHT22;25203;50.754;6.978;2024-01-11T12:12:50;9.70;62.30
39525;DHT22;25203;50.754;6.978;2024-01-11T12:14:53;8.70;63.00
39525;DHT22;25203;50.754;6.978;2024-01-11T12:16:57;7.70;64.70
39525;DHT22;25203;50.754;6.978;2024-01-11T12:18:58;6.70;66.70
39525;DHT22;25203;50.754;6.978;2024-01-11T12:20:59;5.60;68.30
39525;DHT22;25203;50.754;6.978;2024-01-11T12:23:00;5.00;70.50
39525;DHT22;25203;50.754;6.978;2024-01-11T12:25:02;4.80;72.40
39525;DHT22;25203;50.754;6.978;2024-01-11T12:27:04;4.70;72.60
39525;DHT22;25203;50.754;6.978;2024-01-11T12:29:04;4.90;72.70
39525;DHT22;25203;50.754;6.978;2024-01-11T12:31:05;5.30;72.80
39525;DHT22;25203;50.754;6.978;2024-01-11T12:33:06;5.50;73.60
39525;DHT22;25203;50.754;6.978;2024-01-11T12:35:08;5.80;72.80
39525;DHT22;25203;50.754;6.978;2024-01-11T12:37:09;6.00;77.50
39525;DHT22;25203;50.754;6.978;2024-01-11T12:39:10;6.30;73.10
39525;DHT22;25203;50.754;6.978;2024-01-11T12:41:13;6.50;71.70
39525;DHT22;25203;50.754;6.978;2024-01-11T12:43:15;6.80;71.00
39525;DHT22;25203;50.754;6.978;2024-01-11T12:45:22;6.90;70.70
39525;DHT22;25203;50.754;6.978;2024-01-11T12:47:23;6.60;70.80
39525;DHT22;25203;50.754;6.978;2024-01-11T12:49:23;6.20;71.40
39525;DHT22;25203;50.754;6.978;2024-01-11T12:51:25;6.00;72.50